createdAt,value
2018-03-30T00:00:36.166Z,1005.56
2018-03-30T00:01:36.280Z,1005.56
2018-03-30T00:02:36.222Z,1005.57
2018-03-30T00:03:36.251Z,1005.57
2018-03-30T00:04:36.285Z,1005.54
2018-03-30T00:05:36.269Z,1005.59
2018-03-30T00:06:36.344Z,1005.59
2018-03-30T00:07:36.328Z,1005.63
2018-03-30T00:08:36.387Z,1005.67
2018-03-30T00:09:36.408Z,1005.67
2018-03-30T00:10:36.472Z,1005.66
2018-03-30T00:11:36.406Z,1005.67
2018-03-30T00:12:36.702Z,1005.67
2018-03-30T00:13:36.529Z,1005.72
2018-03-30T00:14:36.481Z,1005.76
2018-03-30T00:15:36.720Z,1005.79
2018-03-30T00:16:36.907Z,1005.82
2018-03-30T00:17:36.586Z,1005.8
2018-03-30T00:18:36.609Z,1005.77
2018-03-30T00:19:36.613Z,1005.79
2018-03-30T00:20:36.638Z,1005.79
2018-03-30T00:21:37.018Z,1005.85
2018-03-30T00:22:37.186Z,1005.86
2018-03-30T00:23:36.752Z,1005.91
2018-03-30T00:24:36.709Z,1005.86
2018-03-30T00:25:37.210Z,1005.92
2018-03-30T00:26:36.754Z,1005.89
2018-03-30T00:27:36.843Z,1005.91
2018-03-30T00:28:37.000Z,1005.92
2018-03-30T00:29:37.081Z,1005.97
2018-03-30T00:30:37.064Z,1005.97
2018-03-30T00:31:37.478Z,1006.03
2018-03-30T00:32:37.471Z,1005.98
2018-03-30T00:33:37.488Z,1005.98
2018-03-30T00:34:37.646Z,1005.99
2018-03-30T00:35:37.513Z,1006.03
2018-03-30T00:36:37.608Z,1006.02
2018-03-30T00:37:37.637Z,1006.1
2018-03-30T00:38:37.674Z,1006.1
2018-03-30T00:39:37.710Z,1006.15
2018-03-30T00:40:37.865Z,1006.13
2018-03-30T00:41:37.908Z,1006.18
2018-03-30T00:42:37.954Z,1006.18
2018-03-30T00:43:38.124Z,1006.18
2018-03-30T00:44:38.470Z,1006.26
2018-03-30T00:45:38.438Z,1006.21
2018-03-30T00:46:38.527Z,1006.13
2018-03-30T00:47:38.703Z,1006.21
2018-03-30T00:48:38.732Z,1006.17
2018-03-30T00:49:38.764Z,1006.19
2018-03-30T00:50:38.786Z,1006.15
2018-03-30T00:51:38.756Z,1006.15
2018-03-30T00:52:38.854Z,1006.24
2018-03-30T00:53:38.859Z,1006.22
2018-03-30T00:54:38.928Z,1006.25
2018-03-30T00:55:38.863Z,1006.21
2018-03-30T00:56:38.885Z,1006.27
2018-03-30T00:57:38.942Z,1006.27
2018-03-30T00:58:38.995Z,1006.26
2018-03-30T00:59:38.941Z,1006.33
2018-03-30T01:00:39.000Z,1006.24
2018-03-30T01:01:39.038Z,1006.24
2018-03-30T01:02:39.431Z,1006.2
2018-03-30T01:03:39.270Z,1006.22
2018-03-30T01:04:39.261Z,1006.17
2018-03-30T01:05:39.587Z,1006.22
2018-03-30T01:06:39.360Z,1006.18
2018-03-30T01:07:39.400Z,1006.15
2018-03-30T01:08:39.349Z,1006.19
2018-03-30T01:09:39.444Z,1006.16
2018-03-30T01:10:39.509Z,1006.13
2018-03-30T01:11:39.550Z,1006.13
2018-03-30T01:12:39.534Z,1006.19
2018-03-30T01:13:39.597Z,1006.19
2018-03-30T01:14:40.035Z,1006.23
2018-03-30T01:15:39.874Z,1006.25
2018-03-30T01:16:39.905Z,1006.23
2018-03-30T01:17:40.175Z,1006.27
2018-03-30T01:18:39.728Z,1006.28
2018-03-30T01:19:39.716Z,1006.24
2018-03-30T01:20:39.785Z,1006.23
2018-03-30T01:21:39.919Z,1006.26
2018-03-30T01:22:39.774Z,1006.32
2018-03-30T01:23:40.166Z,1006.33
2018-03-30T01:24:39.870Z,1006.31
2018-03-30T01:25:40.151Z,1006.28
2018-03-30T01:26:40.684Z,1006.37
2018-03-30T01:27:40.650Z,1006.37
2018-03-30T01:28:40.875Z,1006.37
2018-03-30T01:29:40.739Z,1006.37
2018-03-30T01:30:40.737Z,1006.41
2018-03-30T01:31:40.867Z,1006.38
2018-03-30T01:32:40.862Z,1006.41
2018-03-30T01:33:40.873Z,1006.36
2018-03-30T01:34:40.966Z,1006.35
2018-03-30T01:35:41.185Z,1006.37
2018-03-30T01:36:40.896Z,1006.39
2018-03-30T01:37:40.964Z,1006.36
2018-03-30T01:38:40.987Z,1006.39
2018-03-30T01:39:41.061Z,1006.4
2018-03-30T01:40:40.989Z,1006.43
2018-03-30T01:41:41.002Z,1006.46
2018-03-30T01:42:41.063Z,1006.46
2018-03-30T01:43:41.069Z,1006.48
2018-03-30T01:44:41.077Z,1006.5
2018-03-30T01:45:41.140Z,1006.56
2018-03-30T01:46:41.174Z,1006.49
2018-03-30T01:47:41.148Z,1006.56
2018-03-30T01:48:41.240Z,1006.5
2018-03-30T01:49:41.527Z,1006.52
2018-03-30T01:50:41.712Z,1006.57
2018-03-30T01:51:41.273Z,1006.58
2018-03-30T01:52:41.387Z,1006.62
2018-03-30T01:53:41.309Z,1006.65
2018-03-30T01:54:41.296Z,1006.66
2018-03-30T01:55:41.343Z,1006.71
2018-03-30T01:56:41.361Z,1006.69
2018-03-30T01:57:41.396Z,1006.69
2018-03-30T01:58:41.423Z,1006.66
2018-03-30T01:59:41.494Z,1006.72
2018-03-30T02:00:41.495Z,1006.7
2018-03-30T02:01:41.464Z,1006.72
2018-03-30T02:02:41.900Z,1006.69
2018-03-30T02:03:41.910Z,1006.7
2018-03-30T02:04:42.013Z,1006.75
2018-03-30T02:05:41.929Z,1006.7
2018-03-30T02:06:42.410Z,1006.73
2018-03-30T02:07:43.048Z,1006.74
2018-03-30T02:08:43.426Z,1006.73
2018-03-30T02:09:43.392Z,1006.71
2018-03-30T02:10:43.787Z,1006.7
2018-03-30T02:11:43.782Z,1006.7
2018-03-30T02:12:44.143Z,1006.72
2018-03-30T02:13:44.240Z,1006.78
2018-03-30T02:14:44.205Z,1006.74
2018-03-30T02:15:44.755Z,1006.71
2018-03-30T02:16:45.309Z,1006.68
2018-03-30T02:17:45.254Z,1006.68
2018-03-30T02:18:45.277Z,1006.67
2018-03-30T02:19:45.276Z,1006.65
2018-03-30T02:20:45.592Z,1006.67
2018-03-30T02:21:45.651Z,1006.67
2018-03-30T02:22:45.666Z,1006.65
2018-03-30T02:23:45.702Z,1006.65
2018-03-30T02:24:45.702Z,1006.69
2018-03-30T02:25:45.849Z,1006.7
2018-03-30T02:26:45.885Z,1006.68
2018-03-30T02:27:46.070Z,1006.69
2018-03-30T02:28:46.132Z,1006.74
2018-03-30T02:29:46.395Z,1006.73
2018-03-30T02:30:46.241Z,1006.66
2018-03-30T02:31:46.146Z,1006.71
2018-03-30T02:32:46.232Z,1006.7
2018-03-30T02:33:46.272Z,1006.72
2018-03-30T02:34:46.269Z,1006.68
2018-03-30T02:35:46.253Z,1006.71
2018-03-30T02:36:46.519Z,1006.69
2018-03-30T02:37:46.808Z,1006.66
2018-03-30T02:38:46.813Z,1006.65
2018-03-30T02:39:47.240Z,1006.66
2018-03-30T02:40:47.312Z,1006.67
2018-03-30T02:41:47.309Z,1006.65
2018-03-30T02:42:47.578Z,1006.65
2018-03-30T02:43:47.578Z,1006.61
2018-03-30T02:44:47.639Z,1006.62
2018-03-30T02:45:47.689Z,1006.62
2018-03-30T02:46:47.685Z,1006.62
2018-03-30T02:47:47.661Z,1006.68
2018-03-30T02:48:47.754Z,1006.6
2018-03-30T02:49:48.025Z,1006.67
2018-03-30T02:50:48.000Z,1006.6
2018-03-30T02:51:48.130Z,1006.57
2018-03-30T02:52:48.398Z,1006.63
2018-03-30T02:53:48.404Z,1006.59
2018-03-30T02:54:48.321Z,1006.59
2018-03-30T02:55:48.804Z,1006.6
2018-03-30T02:56:48.880Z,1006.57
2018-03-30T02:57:48.851Z,1006.61
2018-03-30T02:58:48.909Z,1006.66
2018-03-30T02:59:49.245Z,1006.65
2018-03-30T03:00:48.997Z,1006.64
2018-03-30T03:01:49.011Z,1006.68
2018-03-30T03:02:49.036Z,1006.71
2018-03-30T03:03:49.038Z,1006.72
2018-03-30T03:04:49.248Z,1006.75
2018-03-30T03:05:49.268Z,1006.75
2018-03-30T03:06:49.302Z,1006.67
2018-03-30T03:07:49.332Z,1006.66
2018-03-30T03:08:49.563Z,1006.66
2018-03-30T03:09:49.666Z,1006.67
2018-03-30T03:10:49.407Z,1006.65
2018-03-30T03:11:49.711Z,1006.65
2018-03-30T03:12:49.439Z,1006.66
2018-03-30T03:13:49.471Z,1006.69
2018-03-30T03:14:49.636Z,1006.71
2018-03-30T03:15:49.478Z,1006.74
2018-03-30T03:16:49.487Z,1006.65
2018-03-30T03:17:49.534Z,1006.69
2018-03-30T03:18:49.975Z,1006.67
2018-03-30T03:19:50.007Z,1006.67
2018-03-30T03:20:49.988Z,1006.64
2018-03-30T03:21:50.050Z,1006.65
2018-03-30T03:22:50.094Z,1006.62
2018-03-30T03:23:50.107Z,1006.58
2018-03-30T03:24:50.189Z,1006.6
2018-03-30T03:25:50.195Z,1006.56
2018-03-30T03:26:50.244Z,1006.56
2018-03-30T03:27:50.243Z,1006.57
2018-03-30T03:28:50.805Z,1006.51
2018-03-30T03:29:51.123Z,1006.55
2018-03-30T03:30:51.166Z,1006.48
2018-03-30T03:31:51.134Z,1006.51
2018-03-30T03:32:51.499Z,1006.5
2018-03-30T03:33:51.644Z,1006.54
2018-03-30T03:34:52.178Z,1006.6
2018-03-30T03:35:52.185Z,1006.54
2018-03-30T03:36:52.666Z,1006.56
2018-03-30T03:37:52.747Z,1006.59
2018-03-30T03:38:52.729Z,1006.62
2018-03-30T03:39:52.746Z,1006.55
2018-03-30T03:40:52.768Z,1006.58
2018-03-30T03:41:52.794Z,1006.63
2018-03-30T03:42:52.816Z,1006.58
2018-03-30T03:43:52.856Z,1006.68
2018-03-30T03:44:53.327Z,1006.68
2018-03-30T03:45:53.282Z,1006.67
2018-03-30T03:46:53.338Z,1006.69
2018-03-30T03:47:53.358Z,1006.64
2018-03-30T03:48:53.434Z,1006.7
2018-03-30T03:49:53.728Z,1006.69
2018-03-30T03:50:53.724Z,1006.66
2018-03-30T03:51:53.722Z,1006.66
2018-03-30T03:52:53.753Z,1006.68
2018-03-30T03:53:53.786Z,1006.73
2018-03-30T03:54:53.798Z,1006.68
2018-03-30T03:55:54.025Z,1006.67
2018-03-30T03:56:54.014Z,1006.68
2018-03-30T03:57:54.019Z,1006.66
2018-03-30T03:58:54.071Z,1006.67
2018-03-30T03:59:54.050Z,1006.65
2018-03-30T04:00:54.087Z,1006.7
2018-03-30T04:01:54.148Z,1006.66
2018-03-30T04:02:54.195Z,1006.75
2018-03-30T04:03:54.177Z,1006.64
2018-03-30T04:04:54.192Z,1006.68
2018-03-30T04:05:54.226Z,1006.66
2018-03-30T04:06:54.731Z,1006.71
2018-03-30T04:07:54.731Z,1006.69
2018-03-30T04:08:54.902Z,1006.75
2018-03-30T04:09:54.910Z,1006.79
2018-03-30T04:10:54.988Z,1006.8
2018-03-30T04:11:55.035Z,1006.79
2018-03-30T04:12:55.438Z,1006.81
2018-03-30T04:13:55.785Z,1006.84
2018-03-30T04:14:56.216Z,1006.88
2018-03-30T04:15:56.410Z,1006.84
2018-03-30T04:16:56.623Z,1006.86
2018-03-30T04:17:56.973Z,1006.88
2018-03-30T04:18:57.032Z,1006.83
2018-03-30T04:19:57.010Z,1006.85
2018-03-30T04:20:57.045Z,1006.82
2018-03-30T04:21:57.248Z,1006.79
2018-03-30T04:22:57.519Z,1006.85
2018-03-30T04:23:57.940Z,1006.81
2018-03-30T04:24:57.979Z,1006.85
2018-03-30T04:25:58.412Z,1006.79
2018-03-30T04:26:58.463Z,1006.82
2018-03-30T04:27:58.634Z,1006.83
2018-03-30T04:28:58.704Z,1006.82
2018-03-30T04:29:58.674Z,1006.81
2018-03-30T04:30:58.701Z,1006.78
2018-03-30T04:31:58.745Z,1006.82
2018-03-30T04:32:59.074Z,1006.81
2018-03-30T04:33:59.069Z,1006.82
2018-03-30T04:34:59.112Z,1006.89
2018-03-30T04:35:59.312Z,1006.91
2018-03-30T04:36:59.481Z,1006.85
2018-03-30T04:37:59.425Z,1006.85
2018-03-30T04:38:59.468Z,1006.83
2018-03-30T04:39:59.478Z,1006.86
2018-03-30T04:40:59.736Z,1006.87
2018-03-30T04:41:59.732Z,1006.92
2018-03-30T04:43:00.188Z,1006.89
2018-03-30T04:44:00.213Z,1006.87
2018-03-30T04:45:00.515Z,1006.89
2018-03-30T04:46:00.516Z,1006.91
2018-03-30T04:47:00.556Z,1006.87
2018-03-30T04:48:00.574Z,1006.9
2018-03-30T04:49:00.796Z,1006.83
2018-03-30T04:50:00.946Z,1006.91
2018-03-30T04:51:00.851Z,1006.9
2018-03-30T04:52:00.852Z,1006.87
2018-03-30T04:53:00.896Z,1006.85
2018-03-30T04:54:01.131Z,1006.82
2018-03-30T04:55:01.218Z,1006.76
2018-03-30T04:56:01.293Z,1006.76
2018-03-30T04:57:01.255Z,1006.75
2018-03-30T04:58:01.264Z,1006.79
2018-03-30T04:59:01.298Z,1006.74
2018-03-30T05:01:01.331Z,1006.71
2018-03-30T05:02:01.438Z,1006.74
2018-03-30T05:03:01.424Z,1006.69
2018-03-30T05:04:01.773Z,1006.73
2018-03-30T05:05:02.140Z,1006.73
2018-03-30T05:06:01.824Z,1006.76
2018-03-30T05:07:01.914Z,1006.78
2018-03-30T05:08:01.863Z,1006.78
2018-03-30T05:09:02.258Z,1006.76
2018-03-30T05:10:01.897Z,1006.78
2018-03-30T05:11:02.114Z,1006.77
2018-03-30T05:12:02.100Z,1006.8
2018-03-30T05:13:02.229Z,1006.8
2018-03-30T05:14:02.440Z,1006.78
2018-03-30T05:15:02.470Z,1006.84
2018-03-30T05:16:02.497Z,1006.79
2018-03-30T05:17:02.532Z,1006.79
2018-03-30T05:18:02.947Z,1006.8
2018-03-30T05:19:03.504Z,1006.8
2018-03-30T05:20:03.451Z,1006.77
2018-03-30T05:21:03.562Z,1006.8
2018-03-30T05:22:03.594Z,1006.82
2018-03-30T05:23:03.543Z,1006.77
2018-03-30T05:24:03.534Z,1006.75
2018-03-30T05:25:03.623Z,1006.72
2018-03-30T05:26:03.755Z,1006.75
2018-03-30T05:27:03.665Z,1006.77
2018-03-30T05:28:03.673Z,1006.81
2018-03-30T05:29:03.798Z,1006.82
2018-03-30T05:30:03.733Z,1006.81
2018-03-30T05:31:03.717Z,1006.84
2018-03-30T05:32:04.166Z,1006.81
2018-03-30T05:33:04.249Z,1006.84
2018-03-30T05:34:04.350Z,1006.9
2018-03-30T05:35:04.411Z,1006.87
2018-03-30T05:36:04.563Z,1006.91
2018-03-30T05:37:04.344Z,1006.93
2018-03-30T05:38:04.349Z,1006.93
2018-03-30T05:39:04.413Z,1006.97
2018-03-30T05:40:04.479Z,1007.02
2018-03-30T05:41:04.473Z,1006.96
2018-03-30T05:42:04.528Z,1007.02
2018-03-30T05:43:04.552Z,1006.98
2018-03-30T05:44:04.676Z,1007.05
2018-03-30T05:45:04.636Z,1007.05
2018-03-30T05:46:04.592Z,1007.08
2018-03-30T05:47:04.568Z,1007.04
2018-03-30T05:48:04.552Z,1007.1
2018-03-30T05:49:04.826Z,1007.09
2018-03-30T05:50:04.948Z,1007.1
2018-03-30T05:51:04.735Z,1007.15
2018-03-30T05:52:04.718Z,1007.1
2018-03-30T05:53:04.940Z,1007.08
2018-03-30T05:54:04.861Z,1007.14
2018-03-30T05:55:04.962Z,1007.13
2018-03-30T05:56:05.054Z,1007.07
2018-03-30T05:57:04.902Z,1007.13
2018-03-30T05:58:05.035Z,1007.15
2018-03-30T05:59:05.088Z,1007.19
2018-03-30T06:00:24.205Z,1007.18
2018-03-30T06:01:04.898Z,1007.15
2018-03-30T06:02:04.908Z,1007.19
2018-03-30T06:03:04.956Z,1007.23
2018-03-30T06:04:05.234Z,1007.19
2018-03-30T06:05:05.009Z,1007.17
2018-03-30T06:06:05.004Z,1007.23
2018-03-30T06:07:05.118Z,1007.18
2018-03-30T06:08:05.090Z,1007.19
2018-03-30T06:09:05.054Z,1007.18
2018-03-30T06:10:05.550Z,1007.18
2018-03-30T06:11:05.170Z,1007.18
2018-03-30T06:12:05.200Z,1007.22
2018-03-30T06:13:05.228Z,1007.2
2018-03-30T06:14:05.184Z,1007.23
2018-03-30T06:15:05.299Z,1007.22
2018-03-30T06:16:05.374Z,1007.21
2018-03-30T06:17:05.339Z,1007.23
2018-03-30T06:18:05.400Z,1007.23
2018-03-30T06:19:05.367Z,1007.21
2018-03-30T06:20:05.485Z,1007.29
2018-03-30T06:21:05.503Z,1007.28
2018-03-30T06:22:05.523Z,1007.24
2018-03-30T06:23:05.440Z,1007.28
2018-03-30T06:24:05.507Z,1007.32
2018-03-30T06:25:05.522Z,1007.32
2018-03-30T06:26:05.596Z,1007.35
2018-03-30T06:27:05.606Z,1007.35
2018-03-30T06:28:05.601Z,1007.36
2018-03-30T06:29:05.608Z,1007.31
2018-03-30T06:30:05.688Z,1007.32
2018-03-30T06:31:05.755Z,1007.34
2018-03-30T06:32:05.736Z,1007.35
2018-03-30T06:33:05.823Z,1007.38
2018-03-30T06:34:06.206Z,1007.43
2018-03-30T06:35:05.897Z,1007.49
2018-03-30T06:36:06.351Z,1007.53
2018-03-30T06:37:06.617Z,1007.55
2018-03-30T06:38:06.797Z,1007.54
2018-03-30T06:39:06.497Z,1007.55
2018-03-30T06:40:06.556Z,1007.51
2018-03-30T06:41:06.574Z,1007.61
2018-03-30T06:42:06.491Z,1007.75
2018-03-30T06:43:06.532Z,1007.8
2018-03-30T06:44:06.547Z,1007.76
2018-03-30T06:45:06.542Z,1007.74
2018-03-30T06:46:06.580Z,1007.78
2018-03-30T06:47:06.600Z,1007.76
2018-03-30T06:48:06.630Z,1007.65
2018-03-30T06:49:06.672Z,1007.64
2018-03-30T06:50:06.648Z,1007.66
2018-03-30T06:51:06.720Z,1007.65
2018-03-30T06:52:06.742Z,1007.66
2018-03-30T06:53:06.794Z,1007.59
2018-03-30T06:54:06.784Z,1007.77
2018-03-30T06:55:07.479Z,1007.78
2018-03-30T06:56:07.397Z,1007.75
2018-03-30T06:57:07.898Z,1007.82
2018-03-30T06:58:07.958Z,1007.79
2018-03-30T06:59:07.905Z,1007.83
2018-03-30T07:00:09.362Z,1007.79
2018-03-30T07:01:08.055Z,1007.76
2018-03-30T07:02:08.035Z,1007.8
2018-03-30T07:03:08.041Z,1007.74
2018-03-30T07:04:08.079Z,1007.69
2018-03-30T07:05:08.101Z,1007.67
2018-03-30T07:06:08.103Z,1007.65
2018-03-30T07:07:08.162Z,1007.7
2018-03-30T07:08:08.371Z,1007.76
2018-03-30T07:09:08.446Z,1007.76
2018-03-30T07:10:08.449Z,1007.85
2018-03-30T07:11:08.413Z,1007.87
2018-03-30T07:12:08.432Z,1007.97
2018-03-30T07:13:08.812Z,1008.07
2018-03-30T07:14:08.833Z,1008.2
2018-03-30T07:15:08.853Z,1008.31
2018-03-30T07:16:08.926Z,1008.31
2018-03-30T07:17:09.299Z,1008.37
2018-03-30T07:18:09.343Z,1008.4
2018-03-30T07:19:09.470Z,1008.41
2018-03-30T07:20:09.497Z,1008.24
2018-03-30T07:21:09.558Z,1008.07
2018-03-30T07:22:09.602Z,1008.02
2018-03-30T07:23:09.638Z,1007.97
2018-03-30T07:24:09.696Z,1007.93
2018-03-30T07:25:10.094Z,1007.89
2018-03-30T07:26:10.108Z,1007.83
2018-03-30T07:27:10.144Z,1007.74
2018-03-30T07:28:10.165Z,1007.7
2018-03-30T07:29:10.204Z,1007.72
2018-03-30T07:30:10.229Z,1007.71
2018-03-30T07:31:10.290Z,1007.72
2018-03-30T07:32:10.339Z,1007.72
2018-03-30T07:33:10.913Z,1007.71
2018-03-30T07:34:11.315Z,1007.7
2018-03-30T07:35:11.319Z,1007.69
2018-03-30T07:36:11.354Z,1007.73
2018-03-30T07:37:11.398Z,1007.76
2018-03-30T07:38:11.441Z,1007.72
2018-03-30T07:39:11.872Z,1007.73
2018-03-30T07:40:12.239Z,1007.69
2018-03-30T07:41:12.263Z,1007.73
2018-03-30T07:42:12.745Z,1007.76
2018-03-30T07:43:12.777Z,1007.78
2018-03-30T07:44:12.814Z,1007.8
2018-03-30T07:45:13.209Z,1007.79
2018-03-30T07:46:13.283Z,1007.84
2018-03-30T07:47:13.598Z,1007.77
2018-03-30T07:48:13.665Z,1007.82
2018-03-30T07:49:13.827Z,1007.9
2018-03-30T07:50:14.119Z,1007.9
2018-03-30T07:51:14.160Z,1007.89
2018-03-30T07:52:14.264Z,1007.88
2018-03-30T07:53:14.307Z,1007.95
2018-03-30T07:54:14.314Z,1007.95
2018-03-30T07:55:14.388Z,1007.92
2018-03-30T07:56:14.367Z,1007.97
2018-03-30T07:57:14.406Z,1008
2018-03-30T07:58:14.427Z,1007.97
2018-03-30T07:59:14.475Z,1007.96
2018-03-30T08:00:14.480Z,1008.01
2018-03-30T08:01:14.508Z,1007.95
2018-03-30T08:02:14.537Z,1008.03
2018-03-30T08:03:14.568Z,1007.96
2018-03-30T08:04:15.010Z,1007.96
2018-03-30T08:05:15.036Z,1007.97
2018-03-30T08:06:15.463Z,1007.95
2018-03-30T08:07:15.837Z,1007.96
2018-03-30T08:08:15.866Z,1007.98
2018-03-30T08:09:16.017Z,1007.93
2018-03-30T08:10:16.354Z,1007.93
2018-03-30T08:11:16.382Z,1007.9
2018-03-30T08:12:16.521Z,1007.9
2018-03-30T08:13:16.672Z,1007.86
2018-03-30T08:14:16.700Z,1007.92
2018-03-30T08:15:16.867Z,1007.9
2018-03-30T08:16:17.338Z,1007.89
2018-03-30T08:17:17.369Z,1007.89
2018-03-30T08:18:17.629Z,1007.85
2018-03-30T08:19:17.429Z,1007.83
2018-03-30T08:20:17.463Z,1007.84
2018-03-30T08:21:17.634Z,1007.85
2018-03-30T08:22:17.671Z,1007.9
2018-03-30T08:23:17.695Z,1007.86
2018-03-30T08:24:17.728Z,1007.85
2018-03-30T08:25:18.151Z,1007.85
2018-03-30T08:26:18.200Z,1007.86
2018-03-30T08:27:18.667Z,1007.88
2018-03-30T08:28:18.816Z,1007.87
2018-03-30T08:29:18.846Z,1007.86
2018-03-30T08:30:18.870Z,1007.89
2018-03-30T08:31:19.065Z,1007.79
2018-03-30T08:32:19.105Z,1007.85
2018-03-30T08:33:19.243Z,1007.87
2018-03-30T08:34:19.228Z,1007.9
2018-03-30T08:35:19.640Z,1007.82
2018-03-30T08:36:19.803Z,1007.82
2018-03-30T08:37:20.242Z,1007.75
2018-03-30T08:38:20.278Z,1007.74
2018-03-30T08:39:20.431Z,1007.7
2018-03-30T08:40:20.463Z,1007.71
2018-03-30T08:41:20.899Z,1007.69
2018-03-30T08:42:20.908Z,1007.68
2018-03-30T08:43:21.085Z,1007.79
2018-03-30T08:44:21.569Z,1007.7
2018-03-30T08:45:21.579Z,1007.71
2018-03-30T08:46:21.742Z,1007.7
2018-03-30T08:47:21.937Z,1007.72
2018-03-30T08:48:22.213Z,1007.76
2018-03-30T08:49:22.448Z,1007.72
2018-03-30T08:50:23.005Z,1007.78
2018-03-30T08:51:22.998Z,1007.77
2018-03-30T08:52:23.025Z,1007.75
2018-03-30T08:53:23.450Z,1007.73
2018-03-30T08:54:23.985Z,1007.73
2018-03-30T08:55:24.087Z,1007.77
2018-03-30T08:56:24.044Z,1007.76
2018-03-30T08:57:24.058Z,1007.79
2018-03-30T08:58:24.185Z,1007.77
2018-03-30T08:59:24.136Z,1007.73
2018-03-30T09:00:24.165Z,1007.79
2018-03-30T09:01:24.608Z,1007.74
2018-03-30T09:02:24.627Z,1007.77
2018-03-30T09:03:24.867Z,1007.79
2018-03-30T09:04:24.671Z,1007.8
2018-03-30T09:05:24.756Z,1007.8
2018-03-30T09:06:24.724Z,1007.83
2018-03-30T09:07:24.790Z,1007.79
2018-03-30T09:08:24.785Z,1007.79
2018-03-30T09:09:24.825Z,1007.74
2018-03-30T09:10:24.844Z,1007.69
2018-03-30T09:11:24.872Z,1007.7
2018-03-30T09:12:24.926Z,1007.7
2018-03-30T09:13:24.925Z,1007.69
2018-03-30T09:14:25.072Z,1007.64
2018-03-30T09:15:25.101Z,1007.62
2018-03-30T09:16:25.501Z,1007.69
2018-03-30T09:17:25.652Z,1007.7
2018-03-30T09:18:25.710Z,1007.66
2018-03-30T09:19:25.735Z,1007.67
2018-03-30T09:20:26.053Z,1007.66
2018-03-30T09:21:26.305Z,1007.63
2018-03-30T09:22:26.328Z,1007.57
2018-03-30T09:23:26.359Z,1007.57
2018-03-30T09:24:26.403Z,1007.54
2018-03-30T09:25:26.419Z,1007.47
2018-03-30T09:26:26.646Z,1007.48
2018-03-30T09:27:26.616Z,1007.54
2018-03-30T09:28:26.633Z,1007.51
2018-03-30T09:29:26.660Z,1007.47
2018-03-30T09:30:27.132Z,1007.47
2018-03-30T09:31:27.138Z,1007.49
2018-03-30T09:32:27.215Z,1007.49
2018-03-30T09:33:27.214Z,1007.52
2018-03-30T09:34:27.270Z,1007.53
2018-03-30T09:35:27.286Z,1007.44
2018-03-30T09:36:27.301Z,1007.52
2018-03-30T09:37:27.457Z,1007.53
2018-03-30T09:38:27.896Z,1007.53
2018-03-30T09:39:28.055Z,1007.49
2018-03-30T09:40:28.339Z,1007.5
2018-03-30T09:41:28.473Z,1007.55
2018-03-30T09:42:28.767Z,1007.63
2018-03-30T09:43:29.180Z,1007.54
2018-03-30T09:44:29.595Z,1007.58
2018-03-30T09:45:30.010Z,1007.56
2018-03-30T09:46:30.420Z,1007.62
2018-03-30T09:47:30.595Z,1007.64
2018-03-30T09:48:31.288Z,1007.61
2018-03-30T09:49:31.542Z,1007.5
2018-03-30T09:50:31.584Z,1007.51
2018-03-30T09:51:31.413Z,1007.4
2018-03-30T09:52:31.634Z,1007.42
2018-03-30T09:53:31.435Z,1007.37
2018-03-30T09:54:31.469Z,1007.55
2018-03-30T09:55:31.505Z,1007.65
2018-03-30T09:56:31.776Z,1007.69
2018-03-30T09:57:31.568Z,1007.71
2018-03-30T09:58:31.966Z,1007.58
2018-03-30T09:59:32.015Z,1007.62
2018-03-30T10:00:32.437Z,1007.64
2018-03-30T10:01:32.462Z,1007.75
2018-03-30T10:02:32.497Z,1007.79
2018-03-30T10:03:32.913Z,1007.79
2018-03-30T10:04:33.284Z,1007.81
2018-03-30T10:05:33.491Z,1007.73
2018-03-30T10:06:33.518Z,1007.7
2018-03-30T10:07:33.593Z,1007.77
2018-03-30T10:08:33.998Z,1007.85
2018-03-30T10:09:34.035Z,1007.84
2018-03-30T10:10:34.065Z,1007.83
2018-03-30T10:11:34.097Z,1007.77
2018-03-30T10:12:34.133Z,1007.82
2018-03-30T10:13:34.175Z,1007.83
2018-03-30T10:14:34.212Z,1007.83
2018-03-30T10:15:34.237Z,1007.92
2018-03-30T10:16:34.407Z,1007.97
2018-03-30T10:17:34.431Z,1008.04
2018-03-30T10:18:34.465Z,1008.05
2018-03-30T10:19:34.910Z,1008.11
2018-03-30T10:20:34.944Z,1008.14
2018-03-30T10:21:35.446Z,1008.12
2018-03-30T10:22:35.656Z,1008.11
2018-03-30T10:23:35.532Z,1008.23
2018-03-30T10:24:35.944Z,1008.28
2018-03-30T10:25:36.337Z,1008.37
2018-03-30T10:26:36.361Z,1008.44
2018-03-30T10:27:36.594Z,1008.48
2018-03-30T10:28:36.975Z,1008.52
2018-03-30T10:29:37.013Z,1008.59
2018-03-30T10:30:37.696Z,1008.55
2018-03-30T10:31:37.907Z,1008.54
2018-03-30T10:32:37.965Z,1008.61
2018-03-30T10:33:38.393Z,1008.83
2018-03-30T10:34:38.474Z,1008.85
2018-03-30T10:35:38.463Z,1008.82
2018-03-30T10:36:38.475Z,1008.93
2018-03-30T10:37:38.849Z,1008.94
2018-03-30T10:38:38.875Z,1008.92
2018-03-30T10:39:39.123Z,1008.95
2018-03-30T10:40:39.097Z,1009.09
2018-03-30T10:41:39.260Z,1009.29
2018-03-30T10:42:39.293Z,1009.57
2018-03-30T10:43:39.332Z,1009.69
2018-03-30T10:44:39.356Z,1009.49
2018-03-30T10:45:39.412Z,1009.38
2018-03-30T10:46:39.858Z,1009.45
2018-03-30T10:47:40.307Z,1009.93
2018-03-30T10:48:40.426Z,1010.07
2018-03-30T10:49:40.754Z,1009.9
2018-03-30T10:50:40.755Z,1009.79
2018-03-30T10:51:40.806Z,1010
2018-03-30T10:52:40.839Z,1010.06
2018-03-30T10:53:40.868Z,1010.13
2018-03-30T10:54:41.011Z,1010.06
2018-03-30T10:55:41.041Z,1010.37
2018-03-30T10:56:41.440Z,1009.76
2018-03-30T10:57:41.464Z,1007.43
2018-03-30T10:58:41.495Z,1006.63
2018-03-30T10:59:41.528Z,1006.48
2018-03-30T11:00:41.879Z,1006.47
2018-03-30T11:01:41.874Z,1006.44
2018-03-30T11:02:41.904Z,1006.43
2018-03-30T11:03:41.964Z,1006.43
2018-03-30T11:04:42.071Z,1006.41
2018-03-30T11:05:42.001Z,1006.39
2018-03-30T11:06:42.024Z,1006.43
2018-03-30T11:07:42.472Z,1006.41
2018-03-30T11:08:42.501Z,1006.44
2018-03-30T11:09:43.091Z,1006.34
2018-03-30T11:10:43.119Z,1006.29
2018-03-30T11:11:43.278Z,1006.31
2018-03-30T11:12:43.193Z,1006.34
2018-03-30T11:13:43.905Z,1006.27
2018-03-30T11:14:43.329Z,1006.25
2018-03-30T11:15:43.269Z,1006.31
2018-03-30T11:16:43.305Z,1006.25
2018-03-30T11:17:43.644Z,1006.23
2018-03-30T11:18:43.366Z,1006.22
2018-03-30T11:19:43.396Z,1006.18
2018-03-30T11:20:43.446Z,1006.19
2018-03-30T11:21:43.462Z,1006.14
2018-03-30T11:22:43.493Z,1006.16
2018-03-30T11:23:43.525Z,1006.24
2018-03-30T11:24:43.572Z,1006.19
2018-03-30T11:25:43.584Z,1006.15
2018-03-30T11:26:43.628Z,1006.14
2018-03-30T11:27:43.653Z,1006.14
2018-03-30T11:28:44.600Z,1006.14
2018-03-30T11:29:44.057Z,1006.13
2018-03-30T11:30:44.109Z,1006.1
2018-03-30T11:31:44.113Z,1006.11
2018-03-30T11:32:44.147Z,1006.09
2018-03-30T11:33:44.172Z,1006.03
2018-03-30T11:34:44.206Z,1006.03
2018-03-30T11:35:44.279Z,1006.07
2018-03-30T11:36:44.262Z,1005.98
2018-03-30T11:37:44.446Z,1006.03
2018-03-30T11:38:44.335Z,1005.99
2018-03-30T11:39:44.635Z,1005.98
2018-03-30T11:40:44.648Z,1006.02
2018-03-30T11:41:44.799Z,1005.96
2018-03-30T11:42:44.825Z,1005.99
2018-03-30T11:43:44.801Z,1005.93
2018-03-30T11:44:44.981Z,1005.9
2018-03-30T11:45:44.864Z,1005.89
2018-03-30T11:46:45.224Z,1005.88
2018-03-30T11:47:45.680Z,1005.85
2018-03-30T11:48:45.746Z,1005.92
2018-03-30T11:49:45.289Z,1005.96
2018-03-30T11:50:45.470Z,1005.88
2018-03-30T11:51:45.442Z,1005.87
2018-03-30T11:52:45.667Z,1005.82
2018-03-30T11:53:45.412Z,1005.82
2018-03-30T11:54:45.458Z,1005.76
2018-03-30T11:55:45.812Z,1005.7
2018-03-30T11:56:45.875Z,1005.74
2018-03-30T11:57:45.522Z,1005.74
2018-03-30T11:58:45.601Z,1005.75
2018-03-30T11:59:45.905Z,1005.78
2018-03-30T12:00:45.613Z,1005.68
2018-03-30T12:01:45.896Z,1005.73
2018-03-30T12:02:45.851Z,1005.67
2018-03-30T12:03:45.872Z,1005.67
2018-03-30T12:04:46.129Z,1005.63
2018-03-30T12:05:46.364Z,1005.62
2018-03-30T12:06:46.390Z,1005.6
2018-03-30T12:07:46.402Z,1005.51
2018-03-30T12:08:46.455Z,1005.58
2018-03-30T12:09:46.660Z,1005.6
2018-03-30T12:10:46.691Z,1005.64